Pelican — WDC4616 — position and weather

sailwx.info

Track history (hours):
 
Tides and Currents Weather Stations Pressure Air Temp Water Temp Dewpoint Dewpoint Depression Visibility Wind Speed Wind Dir Waves Ship Positions

Pelican

Owner: Scherba Jr., Stephen, Seattle, WA. More information available from US FCC via Universal Licensing System and Coast Guard Vessel Documentation Center.

Last reported at 2016-May-17 17:14 UTC. Time now 2016-May-25 03:22 UTC.
Position N 47°38' W 122°20'.

Length 16 m; draft 2 m.

Type: Pleasure craft. MMSI: 367027560.

Date/timePositionNaut miles runAvg speedWind from/ knotsBaromVisibWave heightAir tempDewpointWater temp
2016-May-17 17:14N 47°38' W 122°20'1 1.4
2016-May-17 16:33N 47°39' W 122°21'0 0.5
2016-May-17 15:33N 47°39' W 122°21'2 2.4
2016-May-17 14:33N 47°40' W 122°24'1 0.0
2016-May-16 22:19N 47°41' W 122°24'4 5.5
2016-May-16 21:34N 47°45' W 122°25'9 9.1
2016-May-16 20:33N 47°54' W 122°22'10 8.5
2016-May-16 19:21N 48°04' W 122°25'28 7.3
2016-May-16 15:33N 48°31' W 122°35'1 0.1
2016-May-15 21:33N 48°31' W 122°36'6 6.5
2016-May-15 20:33N 48°32' W 122°46'8 8.0
2016-May-15 19:34N 48°36' W 122°57'9 7.3
2016-May-15 18:18N 48°37' W 123°10'  
Track history (hours):
 
Tides and Currents Weather Stations Pressure Air Temp Water Temp Dewpoint Dewpoint Depression Visibility Wind Speed Wind Dir Waves Ship Positions

Pelican

Owner: Scherba Jr., Stephen, Seattle, WA. More information available from US FCC via Universal Licensing System and Coast Guard Vessel Documentation Center.

Last reported at 2016-May-17 17:14 UTC. Time now 2016-May-25 03:22 UTC.
Position N 47°38' W 122°20'.

Length 16 m; draft 2 m.

Type: Pleasure craft. MMSI: 367027560.

Date/timePositionNaut miles runAvg speedWind from/ knotsBaromVisibWave heightAir tempDewpointWater temp
2016-May-17 17:14N 47°38' W 122°20'1 1.4
2016-May-17 16:33N 47°39' W 122°21'0 0.5
2016-May-17 15:33N 47°39' W 122°21'2 2.4
2016-May-17 14:33N 47°40' W 122°24'1 0.0
2016-May-16 22:19N 47°41' W 122°24'4 5.5
2016-May-16 21:34N 47°45' W 122°25'9 9.1
2016-May-16 20:33N 47°54' W 122°22'10 8.5
2016-May-16 19:21N 48°04' W 122°25'28 7.3
2016-May-16 15:33N 48°31' W 122°35'1 0.1
2016-May-15 21:33N 48°31' W 122°36'6 6.5
2016-May-15 20:33N 48°32' W 122°46'8 8.0
2016-May-15 19:34N 48°36' W 122°57'9 7.3
2016-May-15 18:18N 48°37' W 123°10'  

Dump ship's entire track history